sensor_id;sensor_type;location;lat;lon;timestamp;P1;durP1;ratioP1;P2;durP2;ratioP2
82032;SDS011;71595;52.180;4.512;2023-09-08T00:00:55;16.40;;;12.38;;
82032;SDS011;71595;52.180;4.512;2023-09-08T00:03:20;16.63;;;12.88;;
82032;SDS011;71595;52.180;4.512;2023-09-08T00:05:46;17.60;;;12.18;;
82032;SDS011;71595;52.180;4.512;2023-09-08T00:08:12;18.13;;;12.75;;
82032;SDS011;71595;52.180;4.512;2023-09-08T00:10:37;15.23;;;11.90;;
82032;SDS011;71595;52.180;4.512;2023-09-08T00:13:02;15.13;;;12.13;;
82032;SDS011;71595;52.180;4.512;2023-09-08T00:15:28;17.45;;;12.30;;
82032;SDS011;71595;52.180;4.512;2023-09-08T00:17:53;15.57;;;11.70;;
82032;SDS011;71595;52.180;4.512;2023-09-08T00:20:19;18.42;;;12.88;;
82032;SDS011;71595;52.180;4.512;2023-09-08T00:22:45;16.35;;;12.00;;
82032;SDS011;71595;52.180;4.512;2023-09-08T00:25:10;15.40;;;12.52;;
82032;SDS011;71595;52.180;4.512;2023-09-08T00:27:35;16.95;;;11.88;;
82032;SDS011;71595;52.180;4.512;2023-09-08T00:30:01;14.65;;;11.43;;
82032;SDS011;71595;52.180;4.512;2023-09-08T00:32:27;17.15;;;12.88;;
82032;SDS011;71595;52.180;4.512;2023-09-08T00:34:52;16.30;;;11.90;;
82032;SDS011;71595;52.180;4.512;2023-09-08T00:37:18;16.25;;;12.65;;
82032;SDS011;71595;52.180;4.512;2023-09-08T00:39:43;16.13;;;12.25;;
82032;SDS011;71595;52.180;4.512;2023-09-08T00:42:09;17.92;;;12.02;;
82032;SDS011;71595;52.180;4.512;2023-09-08T00:44:34;15.48;;;11.52;;
82032;SDS011;71595;52.180;4.512;2023-09-08T00:46:59;17.52;;;12.35;;
82032;SDS011;71595;52.180;4.512;2023-09-08T00:49:25;17.02;;;12.48;;
82032;SDS011;71595;52.180;4.512;2023-09-08T00:51:50;19.45;;;13.40;;
82032;SDS011;71595;52.180;4.512;2023-09-08T00:54:16;16.45;;;12.18;;
82032;SDS011;71595;52.180;4.512;2023-09-08T00:56:46;17.30;;;12.90;;
82032;SDS011;71595;52.180;4.512;2023-09-08T00:59:13;18.55;;;12.48;;
82032;SDS011;71595;52.180;4.512;2023-09-08T01:01:38;19.33;;;13.40;;
82032;SDS011;71595;52.180;4.512;2023-09-08T01:04:04;18.95;;;12.80;;
82032;SDS011;71595;52.180;4.512;2023-09-08T01:06:30;17.13;;;12.80;;
82032;SDS011;71595;52.180;4.512;2023-09-08T01:08:57;17.70;;;12.60;;
82032;SDS011;71595;52.180;4.512;2023-09-08T01:11:42;18.75;;;13.02;;
82032;SDS011;71595;52.180;4.512;2023-09-08T01:14:08;16.20;;;11.98;;
82032;SDS011;71595;52.180;4.512;2023-09-08T01:16:33;16.73;;;12.70;;
82032;SDS011;71595;52.180;4.512;2023-09-08T01:18:58;17.27;;;12.63;;
82032;SDS011;71595;52.180;4.512;2023-09-08T01:26:56;17.58;;;12.95;;
82032;SDS011;71595;52.180;4.512;2023-09-08T01:29:22;16.40;;;12.18;;
82032;SDS011;71595;52.180;4.512;2023-09-08T01:31:51;14.75;;;12.38;;
82032;SDS011;71595;52.180;4.512;2023-09-08T01:34:17;17.55;;;12.90;;
82032;SDS011;71595;52.180;4.512;2023-09-08T01:36:43;16.15;;;11.73;;
82032;SDS011;71595;52.180;4.512;2023-09-08T01:39:10;17.55;;;12.48;;
82032;SDS011;71595;52.180;4.512;2023-09-08T01:41:35;17.20;;;11.88;;
82032;SDS011;71595;52.180;4.512;2023-09-08T01:44:01;18.63;;;12.98;;
82032;SDS011;71595;52.180;4.512;2023-09-08T01:46:32;15.50;;;11.73;;
82032;SDS011;71595;52.180;4.512;2023-09-08T01:48:58;17.10;;;12.18;;
82032;SDS011;71595;52.180;4.512;2023-09-08T01:51:23;17.40;;;12.30;;
82032;SDS011;71595;52.180;4.512;2023-09-08T01:53:49;16.02;;;11.70;;
82032;SDS011;71595;52.180;4.512;2023-09-08T01:56:14;15.90;;;11.75;;
82032;SDS011;71595;52.180;4.512;2023-09-08T01:58:40;15.95;;;11.55;;
82032;SDS011;71595;52.180;4.512;2023-09-08T02:01:05;16.08;;;11.25;;
82032;SDS011;71595;52.180;4.512;2023-09-08T02:03:33;15.60;;;12.02;;
82032;SDS011;71595;52.180;4.512;2023-09-08T02:05:59;19.63;;;13.45;;
82032;SDS011;71595;52.180;4.512;2023-09-08T02:08:24;17.60;;;12.43;;
82032;SDS011;71595;52.180;4.512;2023-09-08T02:10:50;16.85;;;12.32;;
82032;SDS011;71595;52.180;4.512;2023-09-08T02:13:15;15.88;;;11.05;;
82032;SDS011;71595;52.180;4.512;2023-09-08T02:15:40;18.20;;;11.50;;
82032;SDS011;71595;52.180;4.512;2023-09-08T02:18:06;16.80;;;12.52;;
82032;SDS011;71595;52.180;4.512;2023-09-08T02:20:35;15.80;;;11.77;;
82032;SDS011;71595;52.180;4.512;2023-09-08T02:23:04;17.83;;;12.80;;
82032;SDS011;71595;52.180;4.512;2023-09-08T02:25:30;17.92;;;12.25;;
82032;SDS011;71595;52.180;4.512;2023-09-08T02:27:56;16.50;;;12.18;;
82032;SDS011;71595;52.180;4.512;2023-09-08T02:30:21;16.70;;;11.68;;
82032;SDS011;71595;52.180;4.512;2023-09-08T02:32:46;18.20;;;12.43;;
82032;SDS011;71595;52.180;4.512;2023-09-08T02:35:12;15.95;;;11.40;;
82032;SDS011;71595;52.180;4.512;2023-09-08T02:37:37;17.25;;;12.10;;
82032;SDS011;71595;52.180;4.512;2023-09-08T02:40:03;16.45;;;11.95;;
82032;SDS011;71595;52.180;4.512;2023-09-08T02:42:28;17.30;;;12.35;;
82032;SDS011;71595;52.180;4.512;2023-09-08T02:44:54;15.45;;;11.82;;
82032;SDS011;71595;52.180;4.512;2023-09-08T02:47:19;15.95;;;11.82;;
82032;SDS011;71595;52.180;4.512;2023-09-08T02:49:45;19.98;;;13.13;;
82032;SDS011;71595;52.180;4.512;2023-09-08T02:52:10;16.35;;;11.75;;
82032;SDS011;71595;52.180;4.512;2023-09-08T02:54:35;16.38;;;12.40;;
82032;SDS011;71595;52.180;4.512;2023-09-08T02:57:01;20.05;;;13.20;;
82032;SDS011;71595;52.180;4.512;2023-09-08T02:59:26;18.10;;;12.82;;
82032;SDS011;71595;52.180;4.512;2023-09-08T03:01:53;18.50;;;12.57;;
82032;SDS011;71595;52.180;4.512;2023-09-08T03:04:18;16.48;;;12.82;;
82032;SDS011;71595;52.180;4.512;2023-09-08T03:06:44;17.50;;;12.50;;
82032;SDS011;71595;52.180;4.512;2023-09-08T03:09:09;17.45;;;12.80;;
82032;SDS011;71595;52.180;4.512;2023-09-08T03:11:34;20.65;;;13.80;;
82032;SDS011;71595;52.180;4.512;2023-09-08T03:14:02;18.38;;;12.85;;
82032;SDS011;71595;52.180;4.512;2023-09-08T03:16:27;18.25;;;12.57;;
82032;SDS011;71595;52.180;4.512;2023-09-08T03:18:53;17.77;;;13.32;;
82032;SDS011;71595;52.180;4.512;2023-09-08T03:21:18;19.35;;;13.70;;
82032;SDS011;71595;52.180;4.512;2023-09-08T03:23:43;18.33;;;12.68;;
82032;SDS011;71595;52.180;4.512;2023-09-08T03:26:09;20.58;;;13.48;;
82032;SDS011;71595;52.180;4.512;2023-09-08T03:28:35;18.85;;;13.18;;
82032;SDS011;71595;52.180;4.512;2023-09-08T03:31:02;21.00;;;13.70;;
82032;SDS011;71595;52.180;4.512;2023-09-08T03:33:31;16.38;;;13.00;;
82032;SDS011;71595;52.180;4.512;2023-09-08T03:35:56;20.73;;;13.75;;
82032;SDS011;71595;52.180;4.512;2023-09-08T03:38:22;19.00;;;13.55;;
82032;SDS011;71595;52.180;4.512;2023-09-08T03:40:48;19.27;;;12.95;;
82032;SDS011;71595;52.180;4.512;2023-09-08T03:43:13;20.10;;;14.32;;
82032;SDS011;71595;52.180;4.512;2023-09-08T03:45:39;19.35;;;14.07;;
82032;SDS011;71595;52.180;4.512;2023-09-08T03:48:04;19.40;;;13.60;;
82032;SDS011;71595;52.180;4.512;2023-09-08T03:50:30;21.35;;;13.38;;
82032;SDS011;71595;52.180;4.512;2023-09-08T03:53:05;19.42;;;14.25;;
82032;SDS011;71595;52.180;4.512;2023-09-08T03:55:30;18.80;;;13.63;;
82032;SDS011;71595;52.180;4.512;2023-09-08T03:57:55;20.08;;;13.80;;
82032;SDS011;71595;52.180;4.512;2023-09-08T04:00:22;18.83;;;13.50;;
82032;SDS011;71595;52.180;4.512;2023-09-08T04:02:48;18.50;;;13.02;;
82032;SDS011;71595;52.180;4.512;2023-09-08T04:05:14;18.73;;;13.70;;
82032;SDS011;71595;52.180;4.512;2023-09-08T04:07:40;19.10;;;14.13;;
82032;SDS011;71595;52.180;4.512;2023-09-08T04:10:07;20.25;;;14.15;;
82032;SDS011;71595;52.180;4.512;2023-09-08T04:12:33;21.10;;;14.32;;
82032;SDS011;71595;52.180;4.512;2023-09-08T04:14:59;19.30;;;14.23;;
82032;SDS011;71595;52.180;4.512;2023-09-08T04:17:24;20.52;;;14.07;;
82032;SDS011;71595;52.180;4.512;2023-09-08T04:19:49;18.30;;;12.77;;
82032;SDS011;71595;52.180;4.512;2023-09-08T04:22:15;21.23;;;14.13;;
82032;SDS011;71595;52.180;4.512;2023-09-08T04:24:40;20.45;;;13.65;;
82032;SDS011;71595;52.180;4.512;2023-09-08T04:27:05;19.92;;;13.55;;
82032;SDS011;71595;52.180;4.512;2023-09-08T04:29:37;20.30;;;13.50;;
82032;SDS011;71595;52.180;4.512;2023-09-08T04:32:02;21.15;;;13.27;;
82032;SDS011;71595;52.180;4.512;2023-09-08T04:34:41;20.42;;;13.35;;
82032;SDS011;71595;52.180;4.512;2023-09-08T04:37:07;20.13;;;13.90;;
82032;SDS011;71595;52.180;4.512;2023-09-08T04:39:33;18.35;;;13.68;;
82032;SDS011;71595;52.180;4.512;2023-09-08T04:41:59;20.77;;;13.75;;
82032;SDS011;71595;52.180;4.512;2023-09-08T04:44:25;18.25;;;13.32;;
82032;SDS011;71595;52.180;4.512;2023-09-08T04:46:51;18.80;;;13.10;;
82032;SDS011;71595;52.180;4.512;2023-09-08T04:49:17;19.58;;;13.35;;
82032;SDS011;71595;52.180;4.512;2023-09-08T04:51:43;18.65;;;13.25;;
82032;SDS011;71595;52.180;4.512;2023-09-08T04:54:08;19.67;;;13.90;;
82032;SDS011;71595;52.180;4.512;2023-09-08T04:56:34;19.83;;;13.65;;
82032;SDS011;71595;52.180;4.512;2023-09-08T04:58:59;20.13;;;14.07;;
82032;SDS011;71595;52.180;4.512;2023-09-08T05:01:26;19.27;;;13.93;;
82032;SDS011;71595;52.180;4.512;2023-09-08T05:04:04;18.63;;;12.88;;
82032;SDS011;71595;52.180;4.512;2023-09-08T05:06:29;17.98;;;12.77;;
82032;SDS011;71595;52.180;4.512;2023-09-08T05:08:55;19.70;;;12.95;;
82032;SDS011;71595;52.180;4.512;2023-09-08T05:11:25;21.10;;;13.38;;
82032;SDS011;71595;52.180;4.512;2023-09-08T05:13:51;19.10;;;12.90;;
82032;SDS011;71595;52.180;4.512;2023-09-08T05:16:16;19.75;;;13.70;;
82032;SDS011;71595;52.180;4.512;2023-09-08T05:18:43;19.50;;;13.88;;
82032;SDS011;71595;52.180;4.512;2023-09-08T05:21:12;18.15;;;13.07;;
82032;SDS011;71595;52.180;4.512;2023-09-08T05:23:39;19.35;;;13.43;;
82032;SDS011;71595;52.180;4.512;2023-09-08T05:26:04;20.02;;;12.60;;
82032;SDS011;71595;52.180;4.512;2023-09-08T05:28:29;18.77;;;12.77;;
82032;SDS011;71595;52.180;4.512;2023-09-08T05:30:55;20.75;;;12.80;;
82032;SDS011;71595;52.180;4.512;2023-09-08T05:33:20;18.55;;;13.27;;
82032;SDS011;71595;52.180;4.512;2023-09-08T05:35:46;20.52;;;13.18;;
82032;SDS011;71595;52.180;4.512;2023-09-08T05:38:12;21.33;;;13.40;;
82032;SDS011;71595;52.180;4.512;2023-09-08T05:40:37;22.30;;;14.25;;
82032;SDS011;71595;52.180;4.512;2023-09-08T05:43:03;17.70;;;12.23;;
82032;SDS011;71595;52.180;4.512;2023-09-08T05:45:29;18.02;;;13.40;;
82032;SDS011;71595;52.180;4.512;2023-09-08T05:47:56;19.70;;;13.10;;
82032;SDS011;71595;52.180;4.512;2023-09-08T05:50:21;20.73;;;14.18;;
82032;SDS011;71595;52.180;4.512;2023-09-08T05:52:47;21.08;;;13.38;;
82032;SDS011;71595;52.180;4.512;2023-09-08T05:55:15;19.38;;;13.10;;
82032;SDS011;71595;52.180;4.512;2023-09-08T05:57:41;21.00;;;13.90;;
82032;SDS011;71595;52.180;4.512;2023-09-08T06:00:06;19.02;;;13.13;;
82032;SDS011;71595;52.180;4.512;2023-09-08T06:02:32;20.10;;;13.38;;
82032;SDS011;71595;52.180;4.512;2023-09-08T06:04:58;19.42;;;13.95;;
82032;SDS011;71595;52.180;4.512;2023-09-08T06:07:23;18.27;;;12.80;;
82032;SDS011;71595;52.180;4.512;2023-09-08T06:09:48;19.13;;;13.35;;
82032;SDS011;71595;52.180;4.512;2023-09-08T06:12:14;19.77;;;13.30;;
82032;SDS011;71595;52.180;4.512;2023-09-08T06:14:39;18.42;;;13.07;;
82032;SDS011;71595;52.180;4.512;2023-09-08T06:17:05;22.08;;;13.23;;
82032;SDS011;71595;52.180;4.512;2023-09-08T06:19:30;19.92;;;12.68;;
82032;SDS011;71595;52.180;4.512;2023-09-08T06:21:55;18.23;;;13.00;;
82032;SDS011;71595;52.180;4.512;2023-09-08T06:24:21;20.30;;;13.95;;
82032;SDS011;71595;52.180;4.512;2023-09-08T06:26:46;20.90;;;14.20;;
82032;SDS011;71595;52.180;4.512;2023-09-08T06:29:12;19.33;;;13.13;;
82032;SDS011;71595;52.180;4.512;2023-09-08T06:31:38;20.95;;;14.20;;
82032;SDS011;71595;52.180;4.512;2023-09-08T06:34:03;20.23;;;14.38;;
82032;SDS011;71595;52.180;4.512;2023-09-08T06:36:28;23.17;;;14.18;;
82032;SDS011;71595;52.180;4.512;2023-09-08T06:38:54;22.20;;;14.80;;
82032;SDS011;71595;52.180;4.512;2023-09-08T06:41:19;19.45;;;14.73;;
82032;SDS011;71595;52.180;4.512;2023-09-08T06:43:45;21.45;;;13.68;;
82032;SDS011;71595;52.180;4.512;2023-09-08T06:46:10;20.88;;;14.73;;
82032;SDS011;71595;52.180;4.512;2023-09-08T06:48:35;21.13;;;15.05;;
82032;SDS011;71595;52.180;4.512;2023-09-08T06:51:01;21.27;;;14.70;;
82032;SDS011;71595;52.180;4.512;2023-09-08T06:53:26;19.90;;;14.88;;
82032;SDS011;71595;52.180;4.512;2023-09-08T06:55:51;22.88;;;14.57;;
82032;SDS011;71595;52.180;4.512;2023-09-08T06:58:17;20.70;;;15.10;;
82032;SDS011;71595;52.180;4.512;2023-09-08T07:00:42;20.42;;;14.20;;
82032;SDS011;71595;52.180;4.512;2023-09-08T07:03:08;20.75;;;14.52;;
82032;SDS011;71595;52.180;4.512;2023-09-08T07:05:38;21.35;;;14.48;;
82032;SDS011;71595;52.180;4.512;2023-09-08T07:08:04;25.10;;;15.55;;
82032;SDS011;71595;52.180;4.512;2023-09-08T07:10:31;19.85;;;14.27;;
82032;SDS011;71595;52.180;4.512;2023-09-08T07:12:56;20.83;;;14.68;;
82032;SDS011;71595;52.180;4.512;2023-09-08T07:15:22;21.77;;;14.80;;
82032;SDS011;71595;52.180;4.512;2023-09-08T07:17:47;20.80;;;15.05;;
82032;SDS011;71595;52.180;4.512;2023-09-08T07:20:12;18.17;;;13.32;;
82032;SDS011;71595;52.180;4.512;2023-09-08T07:22:38;20.92;;;14.88;;
82032;SDS011;71595;52.180;4.512;2023-09-08T07:25:03;23.15;;;16.77;;
82032;SDS011;71595;52.180;4.512;2023-09-08T07:27:29;24.23;;;16.67;;
82032;SDS011;71595;52.180;4.512;2023-09-08T07:29:54;22.40;;;15.13;;
82032;SDS011;71595;52.180;4.512;2023-09-08T07:32:20;21.52;;;14.90;;
82032;SDS011;71595;52.180;4.512;2023-09-08T07:34:45;23.95;;;14.48;;
82032;SDS011;71595;52.180;4.512;2023-09-08T07:37:12;24.40;;;16.38;;
82032;SDS011;71595;52.180;4.512;2023-09-08T07:39:52;19.85;;;13.48;;
82032;SDS011;71595;52.180;4.512;2023-09-08T07:42:17;20.45;;;14.77;;
82032;SDS011;71595;52.180;4.512;2023-09-08T07:44:44;26.80;;;15.68;;
82032;SDS011;71595;52.180;4.512;2023-09-08T07:47:10;21.88;;;15.48;;
82032;SDS011;71595;52.180;4.512;2023-09-08T07:49:35;23.90;;;15.77;;
82032;SDS011;71595;52.180;4.512;2023-09-08T07:52:01;22.00;;;15.63;;
82032;SDS011;71595;52.180;4.512;2023-09-08T07:54:26;26.40;;;16.58;;
82032;SDS011;71595;52.180;4.512;2023-09-08T07:56:53;23.67;;;15.77;;
82032;SDS011;71595;52.180;4.512;2023-09-08T07:59:18;23.13;;;15.35;;
82032;SDS011;71595;52.180;4.512;2023-09-08T08:01:44;27.90;;;17.58;;
82032;SDS011;71595;52.180;4.512;2023-09-08T08:04:09;25.20;;;17.38;;
82032;SDS011;71595;52.180;4.512;2023-09-08T08:06:34;23.55;;;16.20;;
82032;SDS011;71595;52.180;4.512;2023-09-08T08:09:00;25.00;;;16.95;;
82032;SDS011;71595;52.180;4.512;2023-09-08T08:11:25;22.63;;;16.58;;
82032;SDS011;71595;52.180;4.512;2023-09-08T08:13:51;23.27;;;16.65;;
82032;SDS011;71595;52.180;4.512;2023-09-08T08:16:17;28.70;;;16.70;;
82032;SDS011;71595;52.180;4.512;2023-09-08T08:18:42;22.23;;;16.65;;
82032;SDS011;71595;52.180;4.512;2023-09-08T08:21:08;24.35;;;16.02;;
82032;SDS011;71595;52.180;4.512;2023-09-08T08:23:34;25.60;;;16.85;;
82032;SDS011;71595;52.180;4.512;2023-09-08T08:26:00;25.20;;;16.30;;
82032;SDS011;71595;52.180;4.512;2023-09-08T08:28:25;23.15;;;14.65;;
82032;SDS011;71595;52.180;4.512;2023-09-08T08:30:51;20.00;;;13.50;;
82032;SDS011;71595;52.180;4.512;2023-09-08T08:33:16;21.67;;;15.13;;
82032;SDS011;71595;52.180;4.512;2023-09-08T08:35:48;26.25;;;16.15;;
82032;SDS011;71595;52.180;4.512;2023-09-08T08:38:14;21.65;;;14.38;;
82032;SDS011;71595;52.180;4.512;2023-09-08T08:40:40;23.27;;;15.45;;
82032;SDS011;71595;52.180;4.512;2023-09-08T08:43:05;28.00;;;18.48;;
82032;SDS011;71595;52.180;4.512;2023-09-08T08:45:30;25.83;;;17.65;;
82032;SDS011;71595;52.180;4.512;2023-09-08T08:47:57;26.58;;;19.08;;
82032;SDS011;71595;52.180;4.512;2023-09-08T08:50:23;26.10;;;18.25;;
82032;SDS011;71595;52.180;4.512;2023-09-08T08:52:49;28.85;;;19.63;;
82032;SDS011;71595;52.180;4.512;2023-09-08T08:55:14;29.83;;;18.45;;
82032;SDS011;71595;52.180;4.512;2023-09-08T08:57:40;26.33;;;19.00;;
82032;SDS011;71595;52.180;4.512;2023-09-08T09:00:07;27.60;;;18.88;;
82032;SDS011;71595;52.180;4.512;2023-09-08T09:02:35;25.15;;;18.27;;
82032;SDS011;71595;52.180;4.512;2023-09-08T09:05:03;25.30;;;18.40;;
82032;SDS011;71595;52.180;4.512;2023-09-08T09:07:29;26.92;;;18.08;;
82032;SDS011;71595;52.180;4.512;2023-09-08T09:09:55;28.05;;;18.50;;
82032;SDS011;71595;52.180;4.512;2023-09-08T09:12:21;29.80;;;19.05;;
82032;SDS011;71595;52.180;4.512;2023-09-08T09:14:47;25.17;;;18.33;;
82032;SDS011;71595;52.180;4.512;2023-09-08T09:17:13;24.60;;;18.15;;
82032;SDS011;71595;52.180;4.512;2023-09-08T09:19:39;25.92;;;18.58;;
82032;SDS011;71595;52.180;4.512;2023-09-08T09:22:05;27.08;;;18.83;;
82032;SDS011;71595;52.180;4.512;2023-09-08T09:24:41;28.58;;;19.42;;
82032;SDS011;71595;52.180;4.512;2023-09-08T09:27:08;25.05;;;17.38;;
82032;SDS011;71595;52.180;4.512;2023-09-08T09:29:45;25.15;;;18.83;;
82032;SDS011;71595;52.180;4.512;2023-09-08T09:32:14;28.73;;;17.63;;
82032;SDS011;71595;52.180;4.512;2023-09-08T09:34:50;28.27;;;17.60;;
82032;SDS011;71595;52.180;4.512;2023-09-08T09:37:18;24.35;;;17.88;;
82032;SDS011;71595;52.180;4.512;2023-09-08T09:39:51;26.08;;;17.33;;
82032;SDS011;71595;52.180;4.512;2023-09-08T09:42:18;26.27;;;17.92;;
82032;SDS011;71595;52.180;4.512;2023-09-08T09:44:44;26.80;;;19.33;;
82032;SDS011;71595;52.180;4.512;2023-09-08T09:47:13;25.98;;;19.00;;
82032;SDS011;71595;52.180;4.512;2023-09-08T09:49:42;26.70;;;18.58;;
82032;SDS011;71595;52.180;4.512;2023-09-08T09:52:12;29.38;;;18.38;;
82032;SDS011;71595;52.180;4.512;2023-09-08T09:54:42;29.77;;;19.98;;
82032;SDS011;71595;52.180;4.512;2023-09-08T09:57:14;27.88;;;18.83;;
82032;SDS011;71595;52.180;4.512;2023-09-08T10:02:12;29.58;;;18.67;;
82032;SDS011;71595;52.180;4.512;2023-09-08T10:04:39;28.65;;;18.40;;
82032;SDS011;71595;52.180;4.512;2023-09-08T10:07:06;27.77;;;18.85;;
82032;SDS011;71595;52.180;4.512;2023-09-08T10:09:31;30.05;;;18.90;;
82032;SDS011;71595;52.180;4.512;2023-09-08T10:11:57;27.98;;;19.20;;
82032;SDS011;71595;52.180;4.512;2023-09-08T10:14:28;28.02;;;18.20;;
82032;SDS011;71595;52.180;4.512;2023-09-08T10:16:55;27.70;;;18.80;;
82032;SDS011;71595;52.180;4.512;2023-09-08T10:19:24;24.10;;;17.45;;
82032;SDS011;71595;52.180;4.512;2023-09-08T10:21:50;26.05;;;18.23;;
82032;SDS011;71595;52.180;4.512;2023-09-08T10:24:24;28.08;;;18.35;;
82032;SDS011;71595;52.180;4.512;2023-09-08T10:29:28;24.88;;;16.48;;
82032;SDS011;71595;52.180;4.512;2023-09-08T10:31:55;21.67;;;16.92;;
82032;SDS011;71595;52.180;4.512;2023-09-08T10:34:22;24.63;;;17.45;;
82032;SDS011;71595;52.180;4.512;2023-09-08T10:36:49;27.85;;;18.30;;
82032;SDS011;71595;52.180;4.512;2023-09-08T10:42:13;25.38;;;17.33;;
82032;SDS011;71595;52.180;4.512;2023-09-08T10:47:12;23.55;;;17.13;;
82032;SDS011;71595;52.180;4.512;2023-09-08T10:49:38;24.33;;;17.73;;
82032;SDS011;71595;52.180;4.512;2023-09-08T10:52:09;24.98;;;16.38;;
82032;SDS011;71595;52.180;4.512;2023-09-08T10:59:40;22.98;;;16.13;;
82032;SDS011;71595;52.180;4.512;2023-09-08T11:02:52;25.58;;;17.40;;
82032;SDS011;71595;52.180;4.512;2023-09-08T11:05:11;25.17;;;17.05;;
82032;SDS011;71595;52.180;4.512;2023-09-08T11:08:00;27.52;;;17.70;;
82032;SDS011;71595;52.180;4.512;2023-09-08T11:10:26;23.65;;;17.30;;
82032;SDS011;71595;52.180;4.512;2023-09-08T11:12:53;23.77;;;17.67;;
82032;SDS011;71595;52.180;4.512;2023-09-08T11:15:19;24.25;;;17.45;;
82032;SDS011;71595;52.180;4.512;2023-09-08T11:17:45;25.27;;;18.35;;
82032;SDS011;71595;52.180;4.512;2023-09-08T11:20:15;26.55;;;18.55;;
82032;SDS011;71595;52.180;4.512;2023-09-08T11:22:41;24.30;;;16.98;;
82032;SDS011;71595;52.180;4.512;2023-09-08T11:25:08;24.02;;;17.00;;
82032;SDS011;71595;52.180;4.512;2023-09-08T11:27:36;24.98;;;18.08;;
82032;SDS011;71595;52.180;4.512;2023-09-08T11:30:05;25.92;;;16.83;;
82032;SDS011;71595;52.180;4.512;2023-09-08T11:32:33;22.90;;;17.08;;
82032;SDS011;71595;52.180;4.512;2023-09-08T11:35:06;22.48;;;17.23;;
82032;SDS011;71595;52.180;4.512;2023-09-08T11:37:36;21.17;;;16.98;;
82032;SDS011;71595;52.180;4.512;2023-09-08T11:40:03;21.73;;;15.98;;
82032;SDS011;71595;52.180;4.512;2023-09-08T11:42:35;24.88;;;16.27;;
82032;SDS011;71595;52.180;4.512;2023-09-08T11:45:00;23.10;;;16.50;;
82032;SDS011;71595;52.180;4.512;2023-09-08T11:47:28;20.95;;;14.85;;
82032;SDS011;71595;52.180;4.512;2023-09-08T11:49:54;24.48;;;16.35;;
82032;SDS011;71595;52.180;4.512;2023-09-08T11:52:22;20.25;;;15.40;;
82032;SDS011;71595;52.180;4.512;2023-09-08T11:54:49;17.85;;;14.50;;
82032;SDS011;71595;52.180;4.512;2023-09-08T11:57:16;18.45;;;13.95;;
82032;SDS011;71595;52.180;4.512;2023-09-08T11:59:42;20.83;;;13.95;;
82032;SDS011;71595;52.180;4.512;2023-09-08T12:02:10;22.58;;;15.93;;
82032;SDS011;71595;52.180;4.512;2023-09-08T12:07:29;12.27;;;9.57;;
82032;SDS011;71595;52.180;4.512;2023-09-08T12:09:54;15.55;;;10.98;;
82032;SDS011;71595;52.180;4.512;2023-09-08T12:12:20;16.52;;;13.05;;
82032;SDS011;71595;52.180;4.512;2023-09-08T12:14:46;16.17;;;12.88;;
82032;SDS011;71595;52.180;4.512;2023-09-08T12:17:11;14.77;;;11.57;;
82032;SDS011;71595;52.180;4.512;2023-09-08T12:19:46;13.52;;;8.93;;
82032;SDS011;71595;52.180;4.512;2023-09-08T12:27:14;12.57;;;8.55;;
82032;SDS011;71595;52.180;4.512;2023-09-08T12:29:41;13.48;;;9.00;;
82032;SDS011;71595;52.180;4.512;2023-09-08T12:32:16;12.55;;;9.65;;
82032;SDS011;71595;52.180;4.512;2023-09-08T12:34:42;16.27;;;9.23;;
82032;SDS011;71595;52.180;4.512;2023-09-08T12:37:08;11.90;;;9.70;;
82032;SDS011;71595;52.180;4.512;2023-09-08T12:39:36;11.13;;;8.05;;
82032;SDS011;71595;52.180;4.512;2023-09-08T12:42:03;15.27;;;10.27;;
82032;SDS011;71595;52.180;4.512;2023-09-08T12:44:29;11.65;;;9.05;;
82032;SDS011;71595;52.180;4.512;2023-09-08T12:46:54;13.85;;;9.25;;
82032;SDS011;71595;52.180;4.512;2023-09-08T12:49:19;11.02;;;9.15;;
82032;SDS011;71595;52.180;4.512;2023-09-08T12:51:45;11.00;;;8.77;;
82032;SDS011;71595;52.180;4.512;2023-09-08T12:54:10;12.02;;;8.68;;
82032;SDS011;71595;52.180;4.512;2023-09-08T12:56:35;14.40;;;9.23;;
82032;SDS011;71595;52.180;4.512;2023-09-08T12:59:01;12.52;;;8.73;;
82032;SDS011;71595;52.180;4.512;2023-09-08T13:01:26;14.70;;;10.35;;
82032;SDS011;71595;52.180;4.512;2023-09-08T13:03:51;11.80;;;9.30;;
82032;SDS011;71595;52.180;4.512;2023-09-08T13:06:17;12.88;;;9.40;;
82032;SDS011;71595;52.180;4.512;2023-09-08T13:08:42;10.75;;;9.48;;
82032;SDS011;71595;52.180;4.512;2023-09-08T13:11:08;12.85;;;9.35;;
82032;SDS011;71595;52.180;4.512;2023-09-08T13:13:34;12.70;;;9.05;;
82032;SDS011;71595;52.180;4.512;2023-09-08T13:15:59;12.05;;;9.30;;
82032;SDS011;71595;52.180;4.512;2023-09-08T13:18:24;13.07;;;9.13;;
82032;SDS011;71595;52.180;4.512;2023-09-08T13:20:50;12.02;;;9.23;;
82032;SDS011;71595;52.180;4.512;2023-09-08T13:23:15;13.63;;;9.27;;
82032;SDS011;71595;52.180;4.512;2023-09-08T13:25:41;11.48;;;9.57;;
82032;SDS011;71595;52.180;4.512;2023-09-08T13:28:06;13.23;;;10.23;;
82032;SDS011;71595;52.180;4.512;2023-09-08T13:30:32;10.77;;;8.35;;
82032;SDS011;71595;52.180;4.512;2023-09-08T13:32:57;12.48;;;8.68;;
82032;SDS011;71595;52.180;4.512;2023-09-08T13:35:23;14.75;;;8.27;;
82032;SDS011;71595;52.180;4.512;2023-09-08T13:37:48;11.82;;;9.10;;
82032;SDS011;71595;52.180;4.512;2023-09-08T13:40:13;10.52;;;8.07;;
82032;SDS011;71595;52.180;4.512;2023-09-08T13:42:39;9.10;;;8.07;;
82032;SDS011;71595;52.180;4.512;2023-09-08T13:45:04;9.48;;;7.40;;
82032;SDS011;71595;52.180;4.512;2023-09-08T13:47:30;10.05;;;7.10;;
82032;SDS011;71595;52.180;4.512;2023-09-08T13:49:55;10.07;;;6.68;;
82032;SDS011;71595;52.180;4.512;2023-09-08T13:52:21;8.80;;;7.10;;
82032;SDS011;71595;52.180;4.512;2023-09-08T13:54:46;7.95;;;6.43;;
82032;SDS011;71595;52.180;4.512;2023-09-08T13:57:11;9.32;;;6.60;;
82032;SDS011;71595;52.180;4.512;2023-09-08T13:59:37;8.43;;;5.93;;
82032;SDS011;71595;52.180;4.512;2023-09-08T14:02:02;8.82;;;6.05;;
82032;SDS011;71595;52.180;4.512;2023-09-08T14:04:30;9.10;;;6.25;;
82032;SDS011;71595;52.180;4.512;2023-09-08T14:06:55;8.18;;;5.32;;
82032;SDS011;71595;52.180;4.512;2023-09-08T14:09:21;10.90;;;6.13;;
82032;SDS011;71595;52.180;4.512;2023-09-08T14:11:46;8.55;;;6.00;;
82032;SDS011;71595;52.180;4.512;2023-09-08T14:14:12;7.35;;;6.22;;
82032;SDS011;71595;52.180;4.512;2023-09-08T14:16:37;8.75;;;6.22;;
82032;SDS011;71595;52.180;4.512;2023-09-08T14:19:03;7.82;;;5.88;;
82032;SDS011;71595;52.180;4.512;2023-09-08T14:21:28;11.02;;;6.05;;
82032;SDS011;71595;52.180;4.512;2023-09-08T14:23:54;6.68;;;5.38;;
82032;SDS011;71595;52.180;4.512;2023-09-08T14:26:19;6.15;;;4.75;;
82032;SDS011;71595;52.180;4.512;2023-09-08T14:28:45;7.40;;;5.40;;
82032;SDS011;71595;52.180;4.512;2023-09-08T14:31:11;6.75;;;5.13;;
82032;SDS011;71595;52.180;4.512;2023-09-08T14:33:36;7.03;;;5.30;;
82032;SDS011;71595;52.180;4.512;2023-09-08T14:36:02;5.18;;;4.63;;
82032;SDS011;71595;52.180;4.512;2023-09-08T14:38:28;6.00;;;4.68;;
82032;SDS011;71595;52.180;4.512;2023-09-08T14:41:03;6.72;;;4.47;;
82032;SDS011;71595;52.180;4.512;2023-09-08T14:43:29;5.38;;;4.47;;
82032;SDS011;71595;52.180;4.512;2023-09-08T14:45:55;7.13;;;4.05;;
82032;SDS011;71595;52.180;4.512;2023-09-08T14:48:22;6.43;;;4.55;;